Sugar Grove, Illinois
Current Conditions -  °F | °C
As of 11:52 AM on Friday 19 Dec 2014 (Local Time) from KARR Reporting Station
Overcast Overcast  
Wind Chill: 27°   Ceiling: 2300
Heat Index: 33°   Visibility: 8mi
Dew Point: 22°   Wind: 7mph
Humidity: 64%   Direction: 200°SSW
Pressure: 30.29"   Gusts: NA
Location:  41.76°N, 88.44°W
Report Text: KARR 191752Z 20006KT 8SM BKN023 OVC028 01/M06 A3029 RMK AO2 SLP265 T00061056 10011 21044 58003
Loading
Personal Weather Stations






























Interactive Weather Map New forecast layout! Learn more

10-Day Weather Forecast

Advertisements
Track Severe Weather on mobile